Time;durP1;ratioP1;P1;durP2;ratioP2;P2;SDS_P1;SDS_P2;PMS_P1;PMS_P2;Temp;Humidity;BMP_temperature;BMP_pressure;BME280_temperature;BME280_humidity;BME280_pressure;Samples;Min_cycle;Max_cycle;Signal;HPM_P1;HPM_P2
2021/12/09 00:01:01;;;;;;;4.43;3.05;;;5.30;81.40;;;;;;4996405;28;20039;-80
2021/12/09 00:03:32;;;;;;;4.32;3.05;;;5.40;82.00;;;;;;4994144;28;20084;-79
2021/12/09 00:05:58;;;;;;;6.43;3.45;;;5.40;81.40;;;;;;4994636;28;20122;-79
2021/12/09 00:08:27;;;;;;;6.53;3.75;;;5.40;81.30;;;;;;4990684;28;20101;-79
2021/12/09 00:10:59;;;;;;;5.43;3.50;;;5.40;81.20;;;;;;4978361;28;20023;-79
2021/12/09 00:13:26;;;;;;;8.35;3.72;;;5.30;81.30;;;;;;4982861;28;20033;-79
2021/12/09 00:15:52;;;;;;;7.13;4.35;;;5.30;81.30;;;;;;4982359;28;20098;-79
2021/12/09 00:18:17;;;;;;;7.78;4.38;;;5.20;81.20;;;;;;4988566;28;20113;-80
2021/12/09 00:20:43;;;;;;;5.78;3.50;;;5.10;81.30;;;;;;4989487;28;20041;-79
2021/12/09 00:23:08;;;;;;;6.22;3.50;;;5.10;81.50;;;;;;4986531;28;20105;-80
2021/12/09 00:25:35;;;;;;;6.93;3.53;;;5.10;81.50;;;;;;4984753;28;20034;-80
2021/12/09 00:28:01;;;;;;;6.35;3.40;;;5.10;81.60;;;;;;4981575;28;20540;-82
2021/12/09 00:30:28;;;;;;;6.13;3.78;;;5.10;81.60;;;;;;4986495;28;20030;-81
2021/12/09 00:32:54;;;;;;;4.20;3.05;;;5.00;81.60;;;;;;4989503;28;20023;-82
2021/12/09 00:35:21;;;;;;;6.35;3.33;;;5.10;81.70;;;;;;4985220;28;20141;-82
2021/12/09 00:38:22;;;;;;;9.07;4.13;;;5.10;81.60;;;;;;4984327;28;20033;-82
2021/12/09 00:40:38;;;;;;;5.82;3.40;;;5.10;81.60;;;;;;4991065;28;20025;-82
2021/12/09 00:43:04;;;;;;;6.90;3.70;;;5.10;81.70;;;;;;4980842;28;20026;-83
2021/12/09 00:45:31;;;;;;;4.88;3.70;;;5.10;81.60;;;;;;4981773;28;20125;-81
2021/12/09 00:47:56;;;;;;;7.55;3.70;;;5.00;81.50;;;;;;4987544;28;20022;-81
2021/12/09 00:50:22;;;;;;;7.22;4.25;;;5.00;81.60;;;;;;4988922;28;20099;-81
2021/12/09 00:52:48;;;;;;;8.80;3.65;;;5.00;81.70;;;;;;4984550;28;20069;-81
2021/12/09 00:55:17;;;;;;;6.13;3.80;;;4.90;81.70;;;;;;4981797;28;20595;-81
2021/12/09 00:57:43;;;;;;;6.20;3.60;;;4.90;81.70;;;;;;4988908;28;20037;-81
2021/12/09 01:00:20;;;;;;;6.22;3.63;;;4.90;81.80;;;;;;4977959;28;20117;-81
2021/12/09 01:02:46;;;;;;;5.75;3.45;;;4.90;81.80;;;;;;4987244;28;20023;-81
2021/12/09 01:05:12;;;;;;;8.40;4.20;;;4.90;81.80;;;;;;4990864;28;20041;-82
2021/12/09 01:07:39;;;;;;;8.70;4.10;;;4.90;82.50;;;;;;4989288;28;20049;-81
2021/12/09 01:10:07;;;;;;;8.55;3.60;;;4.90;82.00;;;;;;4986423;28;20476;-81
2021/12/09 01:12:33;;;;;;;4.97;3.35;;;4.80;82.00;;;;;;4978886;28;20080;-82
2021/12/09 01:14:58;;;;;;;6.68;3.42;;;4.90;82.20;;;;;;4984336;28;20416;-81
2021/12/09 01:17:24;;;;;;;7.28;3.90;;;4.90;82.00;;;;;;4990199;28;20036;-81
2021/12/09 01:19:52;;;;;;;6.40;3.92;;;4.90;82.00;;;;;;4985150;28;20026;-80
2021/12/09 01:22:28;;;;;;;6.22;3.50;;;4.90;82.10;;;;;;4982601;28;20034;-80
2021/12/09 01:24:53;;;;;;;5.30;3.08;;;4.90;82.10;;;;;;4986663;28;20469;-81
2021/12/09 01:27:19;;;;;;;7.50;3.50;;;5.00;82.10;;;;;;4986295;28;20038;-80
2021/12/09 01:29:52;;;;;;;5.78;3.30;;;5.00;82.10;;;;;;4983975;28;20057;-81
2021/12/09 01:32:24;;;;;;;6.15;3.38;;;5.00;82.10;;;;;;4984598;28;20034;-80
2021/12/09 01:34:50;;;;;;;4.60;3.00;;;5.00;82.10;;;;;;4986679;28;20034;-80
2021/12/09 01:37:16;;;;;;;6.25;3.80;;;5.00;82.00;;;;;;4984578;28;20359;-80
2021/12/09 01:39:41;;;;;;;7.15;4.22;;;5.10;82.00;;;;;;4986989;28;20034;-81
2021/12/09 01:42:07;;;;;;;10.07;5.25;;;5.00;82.00;;;;;;4982809;28;20026;-80
2021/12/09 01:44:33;;;;;;;9.00;5.65;;;5.00;82.00;;;;;;4983892;28;20034;-81
2021/12/09 01:46:59;;;;;;;7.93;5.15;;;5.00;82.00;;;;;;4989953;28;20034;-81
2021/12/09 01:49:24;;;;;;;8.25;5.25;;;5.00;81.90;;;;;;4981661;28;20022;-80
2021/12/09 01:51:50;;;;;;;8.80;4.90;;;4.90;81.90;;;;;;4989220;28;20058;-80
2021/12/09 01:54:16;;;;;;;8.82;5.70;;;4.90;82.00;;;;;;4983016;28;20875;-81
2021/12/09 01:56:42;;;;;;;6.88;4.55;;;4.90;82.00;;;;;;4978818;28;20026;-80
2021/12/09 01:59:08;;;;;;;7.25;4.57;;;4.90;82.10;;;;;;4984266;28;20022;-80
2021/12/09 02:01:34;;;;;;;8.68;4.20;;;4.80;82.00;;;;;;4986408;28;20470;-78
2021/12/09 02:04:02;;;;;;;6.97;3.72;;;4.80;82.10;;;;;;4991124;28;20026;-79
2021/12/09 02:06:28;;;;;;;5.63;3.70;;;4.80;82.10;;;;;;4972632;28;20114;-80
2021/12/09 02:08:55;;;;;;;5.47;3.15;;;4.80;82.10;;;;;;4986234;28;20019;-80
2021/12/09 02:11:21;;;;;;;6.10;3.60;;;4.90;82.10;;;;;;4983828;28;20046;-80
2021/12/09 02:13:50;;;;;;;5.75;3.50;;;4.90;82.10;;;;;;4983132;28;20027;-79
2021/12/09 02:16:16;;;;;;;4.28;2.88;;;4.90;82.00;;;;;;4984568;28;20063;-80
2021/12/09 02:18:43;;;;;;;6.88;3.70;;;4.90;82.00;;;;;;4985434;28;20073;-80
2021/12/09 02:21:21;;;;;;;5.63;3.60;;;4.90;81.90;;;;;;4984768;28;20058;-80
2021/12/09 02:23:50;;;;;;;6.10;3.65;;;4.90;82.00;;;;;;4983512;28;20082;-80
2021/12/09 02:26:21;;;;;;;5.05;3.22;;;4.90;82.00;;;;;;4979569;28;20039;-80
2021/12/09 02:28:51;;;;;;;5.03;3.28;;;4.90;81.90;;;;;;4986677;28;20022;-80
2021/12/09 02:31:16;;;;;;;4.65;3.35;;;4.90;82.00;;;;;;4981546;28;20033;-79
2021/12/09 02:33:42;;;;;;;4.95;3.58;;;4.90;82.00;;;;;;4983614;28;20026;-79
2021/12/09 02:36:08;;;;;;;5.10;3.30;;;4.90;82.00;;;;;;4985546;28;20026;-80
2021/12/09 02:38:41;;;;;;;7.28;3.05;;;4.90;82.00;;;;;;4978057;28;20042;-79
2021/12/09 02:41:09;;;;;;;4.28;2.90;;;4.90;82.10;;;;;;4988348;28;20117;-79
2021/12/09 02:43:35;;;;;;;5.70;3.13;;;4.90;82.10;;;;;;4991487;28;20575;-79
2021/12/09 02:46:01;;;;;;;5.95;3.17;;;5.00;82.10;;;;;;4986941;28;20046;-79
2021/12/09 02:48:27;;;;;;;6.45;3.00;;;5.00;82.10;;;;;;4992491;28;20023;-79
2021/12/09 02:50:53;;;;;;;4.90;3.15;;;5.00;82.00;;;;;;4989239;28;20101;-81
2021/12/09 02:53:19;;;;;;;5.93;2.95;;;5.00;81.90;;;;;;4991006;28;20037;-82
2021/12/09 02:55:46;;;;;;;5.57;3.50;;;5.00;81.80;;;;;;4990904;28;20024;-82
2021/12/09 02:58:12;;;;;;;6.05;2.95;;;5.00;81.80;;;;;;4992334;28;20034;-82
2021/12/09 03:01:08;;;;;;;4.97;3.10;;;4.90;81.70;;;;;;4987705;28;20019;-81
2021/12/09 03:03:34;;;;;;;5.15;3.30;;;5.00;81.70;;;;;;4992043;28;20084;-80
2021/12/09 03:06:01;;;;;;;6.35;3.10;;;4.90;81.70;;;;;;4994812;28;20046;-81
2021/12/09 03:08:34;;;;;;;6.82;3.22;;;4.90;81.70;;;;;;4980746;28;20027;-79
2021/12/09 03:11:12;;;;;;;5.78;3.28;;;4.90;81.80;;;;;;4983179;28;20040;-80
2021/12/09 03:13:40;;;;;;;4.95;3.13;;;4.90;81.80;;;;;;4981484;28;20026;-78
2021/12/09 03:16:06;;;;;;;5.50;3.30;;;4.90;81.90;;;;;;4989178;28;20030;-78
2021/12/09 03:18:42;;;;;;;5.65;3.03;;;4.90;81.90;;;;;;4993084;28;20038;-80
2021/12/09 03:21:25;;;;;;;5.55;3.25;;;4.90;81.80;;;;;;4987774;28;20128;-80
2021/12/09 03:23:51;;;;;;;5.97;3.35;;;4.90;81.80;;;;;;4990993;28;20503;-80
2021/12/09 03:26:20;;;;;;;5.30;3.40;;;4.80;81.70;;;;;;4992145;28;20077;-80
2021/12/09 03:28:46;;;;;;;5.75;3.17;;;4.80;81.70;;;;;;4982636;28;20023;-80
2021/12/09 03:31:11;;;;;;;5.45;3.70;;;4.70;81.60;;;;;;4981654;28;20429;-80
2021/12/09 03:33:37;;;;;;;5.07;3.20;;;4.70;81.70;;;;;;4989834;28;20434;-79
2021/12/09 03:36:06;;;;;;;5.43;3.22;;;4.60;81.50;;;;;;4989271;28;20509;-79
2021/12/09 03:38:32;;;;;;;5.57;3.63;;;4.60;81.60;;;;;;4980444;28;20035;-79
2021/12/09 03:40:58;;;;;;;6.72;3.30;;;4.60;81.50;;;;;;4992180;28;20393;-78
2021/12/09 03:43:25;;;;;;;4.85;3.00;;;4.60;81.60;;;;;;4981038;28;20034;-78
2021/12/09 03:45:55;;;;;;;6.78;3.30;;;4.60;81.60;;;;;;4978456;28;20694;-78
2021/12/09 03:48:22;;;;;;;6.18;3.60;;;4.60;81.60;;;;;;4985250;28;20041;-78
2021/12/09 03:50:48;;;;;;;4.45;2.97;;;4.50;81.50;;;;;;4984740;28;20562;-78
2021/12/09 03:53:13;;;;;;;4.45;3.17;;;4.50;81.50;;;;;;4986254;28;20065;-79
2021/12/09 03:55:40;;;;;;;5.60;3.53;;;4.50;81.50;;;;;;4985294;28;20492;-79
2021/12/09 03:58:06;;;;;;;5.32;3.28;;;4.50;81.50;;;;;;4982425;28;20022;-77
2021/12/09 04:00:31;;;;;;;4.80;3.20;;;4.50;81.40;;;;;;4978404;28;20027;-78
2021/12/09 04:02:57;;;;;;;4.00;2.83;;;4.50;81.40;;;;;;4986400;28;20116;-78
2021/12/09 04:05:23;;;;;;;5.43;3.63;;;4.50;81.40;;;;;;4988618;28;20038;-79
2021/12/09 04:07:49;;;;;;;5.18;3.20;;;4.50;81.40;;;;;;4989921;28;20088;-79
2021/12/09 04:10:14;;;;;;;6.55;3.40;;;4.50;81.30;;;;;;4983622;28;20497;-78
2021/12/09 04:12:40;;;;;;;6.68;3.75;;;4.50;81.30;;;;;;4984550;28;20043;-78
2021/12/09 04:15:06;;;;;;;6.22;3.35;;;4.50;81.30;;;;;;4981173;28;20030;-80
2021/12/09 04:17:34;;;;;;;7.35;3.83;;;4.40;81.30;;;;;;4983783;28;20039;-79
2021/12/09 04:19:59;;;;;;;6.80;4.00;;;4.40;81.30;;;;;;4976563;28;20069;-80
2021/12/09 04:22:25;;;;;;;5.55;3.83;;;4.30;81.30;;;;;;4988474;28;20068;-79
2021/12/09 04:24:53;;;;;;;6.30;3.40;;;4.20;81.40;;;;;;4981791;28;20110;-80
2021/12/09 04:27:19;;;;;;;6.45;3.25;;;4.20;81.50;;;;;;4981961;28;20583;-80
2021/12/09 04:29:46;;;;;;;4.68;3.40;;;4.20;81.70;;;;;;4976302;28;20050;-80
2021/12/09 04:32:11;;;;;;;6.43;3.35;;;4.20;81.60;;;;;;4982937;28;20054;-79
2021/12/09 04:34:37;;;;;;;6.32;3.47;;;4.30;81.70;;;;;;4990071;28;20046;-80
2021/12/09 04:37:03;;;;;;;7.60;3.85;;;4.20;81.60;;;;;;4985767;28;20061;-79
2021/12/09 04:39:28;;;;;;;8.73;4.10;;;4.20;81.60;;;;;;4983760;28;20033;-79
2021/12/09 04:41:54;;;;;;;6.28;3.25;;;4.20;81.60;;;;;;4981205;28;20109;-80
2021/12/09 04:44:21;;;;;;;6.18;3.78;;;4.20;81.80;;;;;;4982922;28;20038;-80
2021/12/09 04:46:47;;;;;;;5.72;3.50;;;4.20;81.70;;;;;;4976371;28;20406;-80
2021/12/09 04:49:12;;;;;;;5.05;3.35;;;4.20;82.40;;;;;;4981938;28;20023;-80
2021/12/09 04:51:38;;;;;;;5.45;3.75;;;4.20;81.80;;;;;;4982214;28;20042;-80
2021/12/09 04:54:05;;;;;;;6.78;3.95;;;4.20;81.70;;;;;;4983382;28;20077;-80
2021/12/09 04:56:31;;;;;;;5.75;3.60;;;4.20;81.80;;;;;;4986067;28;20068;-80
2021/12/09 04:58:57;;;;;;;6.75;3.05;;;4.20;81.90;;;;;;4979391;28;20058;-80
2021/12/09 05:01:22;;;;;;;7.78;3.42;;;4.20;82.00;;;;;;4982273;28;20180;-80
2021/12/09 05:03:48;;;;;;;5.47;3.35;;;4.30;81.90;;;;;;4983514;28;20024;-80
2021/12/09 05:06:15;;;;;;;7.45;3.88;;;4.30;81.90;;;;;;4987139;28;20050;-79
2021/12/09 05:08:46;;;;;;;7.05;3.20;;;4.30;81.90;;;;;;4981528;28;20054;-79
2021/12/09 05:11:29;;;;;;;8.48;4.13;;;4.30;82.00;;;;;;4983005;28;20545;-79
2021/12/09 05:13:55;;;;;;;;;;;4.20;81.80;;;;;;4973505;28;20033;-78
2021/12/09 05:16:20;;;;;;;6.80;3.25;;;4.20;81.90;;;;;;4985065;28;20008;-79
2021/12/09 05:18:48;;;;;;;7.28;4.43;;;4.10;82.00;;;;;;4985687;28;20022;-79
2021/12/09 05:21:15;;;;;;;6.05;3.40;;;4.10;82.00;;;;;;4988459;28;20106;-80
2021/12/09 05:23:41;;;;;;;6.60;3.50;;;4.00;82.10;;;;;;4981050;28;20062;-79
2021/12/09 05:26:08;;;;;;;5.85;3.45;;;4.00;82.00;;;;;;4980650;28;20026;-80
2021/12/09 05:28:36;;;;;;;6.93;3.60;;;3.90;82.10;;;;;;4983532;28;20432;-81
2021/12/09 05:33:48;;;;;;;4.28;3.03;;;4.00;82.30;;;;;;4983379;28;20093;-81
2021/12/09 05:36:15;;;;;;;6.03;3.35;;;4.10;82.30;;;;;;4984095;28;20026;-79
2021/12/09 05:38:41;;;;;;;6.15;3.30;;;4.10;82.30;;;;;;4982402;28;20031;-78
2021/12/09 05:41:07;;;;;;;5.60;3.10;;;4.10;82.30;;;;;;4976590;28;20027;-78
2021/12/09 05:43:32;;;;;;;9.52;3.72;;;4.10;82.20;;;;;;4983967;28;20035;-80
2021/12/09 05:45:58;;;;;;;5.57;3.10;;;4.10;82.10;;;;;;4983996;28;20045;-81
2021/12/09 05:48:24;;;;;;;6.90;3.17;;;4.10;82.10;;;;;;4981310;28;20022;-83
2021/12/09 05:50:50;;;;;;;4.82;2.95;;;4.10;82.10;;;;;;4978805;28;20062;-83
2021/12/09 05:53:16;;;;;;;7.32;3.70;;;4.10;82.10;;;;;;4976183;28;20037;-80
2021/12/09 05:55:43;;;;;;;7.10;3.53;;;4.10;82.00;;;;;;4985983;28;20026;-81
2021/12/09 05:58:14;;;;;;;8.13;3.65;;;4.00;82.00;;;;;;4986592;28;20053;-80
2021/12/09 06:00:41;;;;;;;10.73;4.05;;;4.00;82.10;;;;;;4982123;28;20073;-80
2021/12/09 06:03:07;;;;;;;4.88;3.15;;;3.90;82.10;;;;;;4986775;28;20030;-79
2021/12/09 06:05:34;;;;;;;5.40;3.00;;;3.90;82.20;;;;;;4984345;28;20041;-79
2021/12/09 06:07:59;;;;;;;5.38;3.28;;;3.90;82.20;;;;;;4980766;28;20034;-78
2021/12/09 06:10:25;;;;;;;6.05;3.30;;;3.90;82.20;;;;;;4976202;28;20041;-78
2021/12/09 06:12:51;;;;;;;7.05;3.35;;;3.90;82.30;;;;;;4980588;28;20050;-76
2021/12/09 06:15:17;;;;;;;5.88;3.30;;;3.90;82.20;;;;;;4983033;28;20022;-87
2021/12/09 06:17:42;;;;;;;6.50;3.40;;;3.90;82.30;;;;;;4985131;28;20038;-76
2021/12/09 06:20:08;;;;;;;6.07;3.47;;;3.80;82.30;;;;;;4992482;28;20037;-75
2021/12/09 06:22:34;;;;;;;7.07;3.13;;;3.80;83.00;;;;;;4992214;28;20050;-76
2021/12/09 06:25:00;;;;;;;5.53;2.40;;;3.80;82.50;;;;;;4988078;28;20026;-76
2021/12/09 06:27:25;;;;;;;6.07;3.30;;;3.80;82.60;;;;;;4995227;28;20057;-76
2021/12/09 06:29:51;;;;;;;6.68;3.10;;;3.80;82.60;;;;;;4987452;28;20037;-75
2021/12/09 06:32:16;;;;;;;4.80;2.88;;;3.80;82.60;;;;;;4994051;28;20035;-75
2021/12/09 06:34:42;;;;;;;5.95;2.90;;;3.80;82.60;;;;;;5001953;28;20026;-76
2021/12/09 06:37:08;;;;;;;5.72;2.80;;;3.80;82.70;;;;;;4996816;28;20027;-75
2021/12/09 06:39:34;;;;;;;4.03;2.72;;;3.80;82.70;;;;;;4986718;28;20073;-75
2021/12/09 06:41:59;;;;;;;8.45;3.70;;;3.80;82.70;;;;;;4994998;28;20124;-76
2021/12/09 06:44:25;;;;;;;6.95;3.25;;;3.80;82.70;;;;;;4994547;28;20037;-76
2021/12/09 06:46:50;;;;;;;5.70;2.90;;;3.80;82.80;;;;;;4980920;28;20050;-76
2021/12/09 06:49:16;;;;;;;7.72;3.17;;;3.80;82.80;;;;;;4988668;28;20605;-76
2021/12/09 06:51:42;;;;;;;7.45;3.50;;;3.80;82.70;;;;;;4992401;28;20038;-75
2021/12/09 06:54:07;;;;;;;5.32;2.88;;;3.80;82.80;;;;;;4992396;28;20036;-77
2021/12/09 06:56:34;;;;;;;6.95;2.85;;;3.80;82.90;;;;;;4975537;28;20031;-76
2021/12/09 06:59:00;;;;;;;7.32;3.17;;;3.70;82.90;;;;;;4976382;28;20397;-77
2021/12/09 07:01:26;;;;;;;6.03;3.40;;;3.70;82.90;;;;;;4986801;28;20038;-77
2021/12/09 07:03:53;;;;;;;5.68;2.97;;;3.70;83.00;;;;;;4984387;28;20019;-77
2021/12/09 07:06:19;;;;;;;5.25;3.10;;;3.70;83.10;;;;;;4979975;28;20564;-76
2021/12/09 07:08:47;;;;;;;7.07;3.30;;;3.70;83.10;;;;;;4981816;28;20046;-77
2021/12/09 07:11:14;;;;;;;8.32;3.08;;;3.70;83.10;;;;;;4989639;28;20027;-78
2021/12/09 07:13:40;;;;;;;6.15;3.08;;;3.70;83.20;;;;;;4980076;28;20146;-77
2021/12/09 07:16:06;;;;;;;6.95;2.80;;;3.80;83.30;;;;;;4986585;28;20105;-77
2021/12/09 07:18:32;;;;;;;4.93;2.80;;;3.80;83.20;;;;;;4974928;28;20125;-77
2021/12/09 07:20:58;;;;;;;5.97;3.00;;;3.80;83.20;;;;;;4991761;28;20030;-79
2021/12/09 07:23:23;;;;;;;6.10;3.00;;;3.80;83.20;;;;;;4981331;28;20018;-77
2021/12/09 07:25:49;;;;;;;6.20;3.40;;;3.80;83.10;;;;;;4986158;28;20030;-77
2021/12/09 07:28:15;;;;;;;5.03;2.90;;;3.80;83.10;;;;;;4977694;28;20081;-77
2021/12/09 07:30:41;;;;;;;7.53;3.05;;;3.80;83.10;;;;;;4976216;28;20034;-77
2021/12/09 07:33:07;;;;;;;6.43;3.53;;;3.80;83.20;;;;;;4972634;28;20026;-76
2021/12/09 07:35:33;;;;;;;8.00;3.35;;;3.80;83.20;;;;;;4983302;28;20026;-78
2021/12/09 07:38:01;;;;;;;6.53;3.63;;;3.80;83.20;;;;;;4982327;28;20429;-76
2021/12/09 07:40:27;;;;;;;6.13;3.25;;;3.80;83.20;;;;;;4983301;28;20030;-78
2021/12/09 07:42:53;;;;;;;7.75;3.33;;;3.80;83.30;;;;;;4986339;28;20035;-79
2021/12/09 07:45:19;;;;;;;5.60;3.03;;;3.80;83.20;;;;;;4982661;28;20096;-78
2021/12/09 07:47:46;;;;;;;6.72;2.70;;;3.80;83.30;;;;;;4986067;28;20041;-79
2021/12/09 07:50:14;;;;;;;6.57;2.80;;;3.80;83.30;;;;;;4981333;28;20506;-78
2021/12/09 07:52:44;;;;;;;6.28;3.00;;;3.80;83.40;;;;;;4979115;28;20049;-79
2021/12/09 07:55:11;;;;;;;5.78;2.45;;;3.80;83.40;;;;;;4982152;28;20584;-79
2021/12/09 07:57:38;;;;;;;6.72;3.25;;;3.80;83.40;;;;;;4986425;28;20023;-79
2021/12/09 08:00:08;;;;;;;6.82;2.55;;;3.90;83.40;;;;;;4987265;28;20238;-80
2021/12/09 08:02:34;;;;;;;2.97;2.15;;;3.80;83.50;;;;;;4987002;28;20022;-77
2021/12/09 08:04:59;;;;;;;6.13;2.65;;;3.80;83.50;;;;;;4983771;28;20521;-75
2021/12/09 08:07:25;;;;;;;9.27;3.50;;;3.80;83.50;;;;;;4978661;28;20078;-76
2021/12/09 08:09:51;;;;;;;5.97;2.92;;;3.80;83.50;;;;;;4975609;28;20022;-76
2021/12/09 08:12:17;;;;;;;7.07;3.72;;;3.90;83.50;;;;;;4981609;28;21935;-74
2021/12/09 08:14:43;;;;;;;6.70;3.10;;;3.80;83.50;;;;;;4982664;28;20030;-75
2021/12/09 08:17:12;;;;;;;5.03;2.92;;;3.90;83.50;;;;;;4979396;28;20027;-75
2021/12/09 08:19:39;;;;;;;4.10;2.70;;;3.90;83.40;;;;;;4981746;28;20046;-76
2021/12/09 08:22:05;;;;;;;8.93;3.95;;;3.90;83.40;;;;;;4979331;28;20457;-77
2021/12/09 08:24:30;;;;;;;5.75;3.60;;;3.90;83.30;;;;;;4986569;28;20043;-75
2021/12/09 08:26:56;;;;;;;7.75;3.40;;;3.80;83.40;;;;;;4982953;28;20042;-76
2021/12/09 08:29:22;;;;;;;5.95;3.22;;;3.80;83.50;;;;;;4988906;28;20492;-76
2021/12/09 08:31:47;;;;;;;5.53;3.10;;;3.80;83.50;;;;;;4982022;28;20038;-76
2021/12/09 08:34:13;;;;;;;6.47;3.75;;;3.90;83.60;;;;;;4980375;28;20173;-76
2021/12/09 08:36:38;;;;;;;6.20;2.92;;;3.80;83.60;;;;;;4979238;28;20030;-74
2021/12/09 08:39:05;;;;;;;6.15;3.20;;;3.80;83.60;;;;;;4975801;28;20049;-77
2021/12/09 08:41:31;;;;;;;8.85;3.65;;;3.90;83.60;;;;;;4978298;28;20029;-77
2021/12/09 08:43:57;;;;;;;8.85;3.80;;;3.80;83.70;;;;;;4980207;28;20030;-78
2021/12/09 08:46:22;;;;;;;6.28;2.83;;;3.90;83.80;;;;;;4974473;28;20027;-77
2021/12/09 08:48:48;;;;;;;8.60;3.42;;;3.90;83.80;;;;;;4973823;28;20034;-77
2021/12/09 08:51:14;;;;;;;9.80;3.10;;;3.90;83.80;;;;;;4981038;28;20030;-79
2021/12/09 08:53:40;;;;;;;5.47;2.90;;;4.00;83.80;;;;;;4981547;28;20039;-79
2021/12/09 08:56:05;;;;;;;5.72;3.05;;;4.00;83.90;;;;;;4985697;28;20022;-77
2021/12/09 08:58:31;;;;;;;8.30;3.83;;;4.00;83.90;;;;;;4980520;28;20035;-78
2021/12/09 09:01:00;;;;;;;7.18;3.47;;;4.10;83.90;;;;;;4980834;28;20030;-78
2021/12/09 09:03:26;;;;;;;6.97;3.90;;;4.10;84.00;;;;;;4980335;28;20120;-75
2021/12/09 09:05:52;;;;;;;6.85;3.17;;;4.00;84.10;;;;;;4982985;28;20043;-79
2021/12/09 09:08:18;;;;;;;7.18;3.83;;;4.00;84.10;;;;;;4985495;28;20034;-76
2021/12/09 09:10:45;;;;;;;10.50;4.68;;;4.00;84.30;;;;;;4980610;28;20029;-76
2021/12/09 09:13:12;;;;;;;7.25;3.75;;;4.00;84.40;;;;;;4979825;28;20448;-74
2021/12/09 09:15:38;;;;;;;7.32;3.92;;;4.10;84.50;;;;;;4984531;28;20129;-74
2021/12/09 09:18:05;;;;;;;7.70;3.45;;;4.00;84.50;;;;;;4979344;28;20105;-75
2021/12/09 09:20:34;;;;;;;9.95;4.60;;;4.10;84.50;;;;;;4979949;28;20474;-76
2021/12/09 09:23:00;;;;;;;9.10;4.70;;;4.10;84.50;;;;;;4984695;28;20069;-75
2021/12/09 09:25:30;;;;;;;8.23;3.80;;;4.10;84.50;;;;;;4978014;28;20049;-76
2021/12/09 09:27:58;;;;;;;9.93;4.82;;;4.10;84.60;;;;;;4980726;28;20030;-75
2021/12/09 09:30:27;;;;;;;9.13;4.50;;;4.10;84.70;;;;;;4982263;28;20104;-74
2021/12/09 09:32:53;;;;;;;9.80;4.43;;;4.10;84.80;;;;;;4981345;28;20061;-78
2021/12/09 09:35:19;;;;;;;6.50;3.65;;;4.10;84.80;;;;;;4983939;28;20114;-77
2021/12/09 09:37:48;;;;;;;8.70;3.72;;;4.10;84.80;;;;;;4982703;28;20571;-78
2021/12/09 09:40:17;;;;;;;5.03;3.40;;;4.20;84.80;;;;;;4983273;28;20081;-78
2021/12/09 09:45:13;;;;;;;9.65;4.70;;;4.20;84.80;;;;;;4983811;28;20037;-77
2021/12/09 09:47:39;;;;;;;10.68;5.82;;;4.20;84.80;;;;;;4980933;28;20045;-77
2021/12/09 09:50:07;;;;;;;7.55;4.03;;;4.20;84.90;;;;;;4981812;28;20485;-77
2021/12/09 09:52:33;;;;;;;8.82;4.30;;;4.20;85.00;;;;;;4981950;28;20088;-78
2021/12/09 09:55:01;;;;;;;8.63;4.70;;;4.30;84.90;;;;;;4981772;28;20026;-78
2021/12/09 09:57:26;;;;;;;11.02;5.00;;;4.30;84.90;;;;;;4979814;28;20033;-78
2021/12/09 09:59:52;;;;;;;8.48;4.38;;;4.30;85.00;;;;;;4977542;28;20062;-76
2021/12/09 10:02:18;;;;;;;5.75;4.00;;;4.30;85.00;;;;;;4982268;28;20057;-78
2021/12/09 10:04:47;;;;;;;8.65;4.78;;;4.40;85.00;;;;;;4984051;28;20034;-75
2021/12/09 10:07:19;;;;;;;9.55;5.40;;;4.40;85.00;;;;;;4980814;28;20043;-77
2021/12/09 10:09:46;;;;;;;11.23;5.03;;;4.40;85.00;;;;;;4978351;28;20018;-77
2021/12/09 10:12:12;;;;;;;11.73;5.18;;;4.40;85.00;;;;;;4988155;28;20122;-75
2021/12/09 10:14:38;;;;;;;8.88;4.57;;;4.40;85.10;;;;;;4983225;28;20113;-75
2021/12/09 10:17:10;;;;;;;10.00;5.18;;;4.50;85.10;;;;;;4987561;28;20734;-78
2021/12/09 10:19:47;;;;;;;9.82;5.00;;;4.50;85.10;;;;;;4992561;28;20113;-76
2021/12/09 10:22:20;;;;;;;8.50;4.88;;;4.50;85.10;;;;;;4991730;28;20034;-75
2021/12/09 10:24:49;;;;;;;9.82;4.80;;;4.50;85.10;;;;;;4985328;28;20034;-76
2021/12/09 10:27:23;;;;;;;7.47;4.13;;;4.60;85.10;;;;;;4983970;28;20038;-78
2021/12/09 10:29:49;;;;;;;8.88;4.65;;;4.50;84.90;;;;;;4977820;28;20034;-79
2021/12/09 10:32:24;;;;;;;8.10;4.82;;;4.60;84.90;;;;;;4976539;28;20512;-80
2021/12/09 10:34:51;;;;;;;13.23;6.95;;;4.60;84.90;;;;;;4989984;28;20057;-78
2021/12/09 10:37:26;;;;;;;11.93;4.88;;;4.60;84.90;;;;;;4976387;28;20034;-79
2021/12/09 10:40:09;;;;;;;8.52;4.47;;;4.60;84.90;;;;;;4984197;28;20517;-80
2021/12/09 10:42:43;;;;;;;12.38;5.38;;;4.60;84.90;;;;;;4979074;28;20022;-78
2021/12/09 10:45:14;;;;;;;9.60;4.63;;;4.60;84.80;;;;;;4984991;28;20104;-78
2021/12/09 10:50:37;;;;;;;7.65;4.55;;;4.70;84.90;;;;;;4970442;28;20039;-77
2021/12/09 10:55:49;;;;;;;9.25;4.53;;;4.70;85.00;;;;;;4976676;28;20026;-77
2021/12/09 10:58:18;;;;;;;8.82;5.13;;;4.70;85.10;;;;;;4985594;28;20125;-77
2021/12/09 11:00:52;;;;;;;9.68;5.28;;;4.80;85.10;;;;;;4978079;28;20034;-77
2021/12/09 11:03:42;;;;;;;15.80;7.30;;;4.80;85.00;;;;;;4984569;28;20472;-78
2021/12/09 11:06:09;;;;;;;7.88;4.38;;;4.80;85.00;;;;;;4987456;28;20080;-76
2021/12/09 11:08:45;;;;;;;12.32;6.68;;;4.80;85.00;;;;;;4981049;28;20051;-74
2021/12/09 11:11:35;;;;;;;8.13;4.60;;;4.80;85.10;;;;;;4981758;28;20096;-74
2021/12/09 11:14:04;;;;;;;7.78;5.35;;;4.80;85.10;;;;;;4973765;28;20053;-75
2021/12/09 11:16:40;;;;;;;11.40;6.13;;;4.90;85.10;;;;;;4979920;28;20777;-73
2021/12/09 11:19:24;;;;;;;13.25;6.00;;;4.90;85.10;;;;;;4978439;28;20472;-74
2021/12/09 11:21:57;;;;;;;12.35;6.57;;;4.80;85.10;;;;;;4989948;28;20084;-74
2021/12/09 11:24:24;;;;;;;;;;;4.90;85.10;;;;;;4987222;28;20124;-75
2021/12/09 11:26:57;;;;;;;10.80;6.70;;;4.90;85.00;;;;;;4983962;28;19932;-76
2021/12/09 11:29:31;;;;;;;7.47;5.07;;;4.90;85.20;;;;;;4981113;28;20041;-76
2021/12/09 11:32:04;;;;;;;12.65;6.32;;;4.90;85.30;;;;;;4973866;28;20030;-75
2021/12/09 11:34:39;;;;;;;11.23;7.03;;;4.90;85.20;;;;;;4987086;28;20099;-76
2021/12/09 11:37:22;;;;;;;16.05;7.90;;;4.90;85.30;;;;;;4984179;28;20015;-75
2021/12/09 11:39:48;;;;;;;10.38;5.38;;;4.90;85.40;;;;;;4977399;28;20616;-75
2021/12/09 11:42:20;;;;;;;13.82;6.53;;;5.00;85.40;;;;;;4980123;28;20025;-76
2021/12/09 11:44:47;;;;;;;14.15;8.07;;;5.00;85.40;;;;;;4980317;28;20026;-75
2021/12/09 11:47:14;;;;;;;13.57;8.05;;;5.00;85.30;;;;;;4980129;28;20441;-76
2021/12/09 11:49:43;;;;;;;11.38;7.00;;;5.00;85.40;;;;;;4986089;28;20082;-76
2021/12/09 11:52:10;;;;;;;12.82;6.90;;;5.00;85.50;;;;;;4984824;28;20038;-75
2021/12/09 11:54:37;;;;;;;9.68;5.78;;;5.00;85.40;;;;;;4984597;28;20053;-76
2021/12/09 11:57:28;;;;;;;13.57;7.72;;;5.10;85.40;;;;;;4981427;28;20030;-75
2021/12/09 12:11:31;;;;;;;14.93;8.00;;;5.20;85.40;;;;;;4988975;28;20041;-76
2021/12/09 12:14:04;;;;;;;12.07;7.57;;;5.30;85.40;;;;;;4989360;28;20745;-75
2021/12/09 12:16:44;;;;;;;11.88;7.13;;;5.30;86.00;;;;;;4988628;28;20030;-76
2021/12/09 12:19:34;;;;;;;10.75;7.00;;;5.30;85.30;;;;;;4995411;28;20125;-76
2021/12/09 12:22:37;;;;;;;10.30;6.72;;;5.30;85.30;;;;;;4985863;28;20022;-74
2021/12/09 12:25:12;;;;;;;11.82;8.32;;;5.40;85.30;;;;;;4989491;28;20599;-77
2021/12/09 12:27:55;;;;;;;13.35;8.52;;;5.40;85.30;;;;;;4993973;28;20049;-77
2021/12/09 12:30:39;;;;;;;;;;;5.30;85.40;;;;;;4995216;28;20030;-76
2021/12/09 12:33:21;;;;;;;8.75;6.07;;;5.40;85.40;;;;;;5001591;28;19909;-79
2021/12/09 12:36:24;;;;;;;12.02;6.75;;;5.40;85.40;;;;;;4993921;28;20105;-76
2021/12/09 12:39:17;;;;;;;8.68;6.20;;;5.50;85.40;;;;;;4991911;28;20700;-74
2021/12/09 12:42:27;;;;;;;12.98;8.93;;;5.50;85.30;;;;;;4986033;28;20347;-74
2021/12/09 12:45:19;;;;;;;10.02;7.35;;;5.40;85.30;;;;;;4959383;28;20042;-75
2021/12/09 12:47:54;;;;;;;9.15;5.82;;;5.40;85.40;;;;;;4977573;28;20043;-75
2021/12/09 12:50:21;;;;;;;15.55;8.73;;;5.40;85.40;;;;;;4982780;28;20050;-76
2021/12/09 12:52:47;;;;;;;9.60;6.13;;;5.50;85.50;;;;;;4986073;28;20069;-75
2021/12/09 12:55:26;;;;;;;10.18;7.78;;;5.50;85.40;;;;;;4984637;28;20057;-75
2021/12/09 12:57:54;;;;;;;9.98;7.32;;;5.50;85.40;;;;;;4984998;28;20053;-75
2021/12/09 13:00:32;;;;;;;13.05;8.65;;;5.50;85.40;;;;;;4988726;28;20026;-75
2021/12/09 13:05:42;;;;;;;11.25;8.02;;;5.50;85.40;;;;;;4987882;28;20033;-77
2021/12/09 13:13:28;;;;;;;7.85;6.22;;;5.50;85.40;;;;;;4991042;28;20034;-74
2021/12/09 13:16:09;;;;;;;13.90;9.20;;;5.50;85.40;;;;;;4989662;28;20026;-75
2021/12/09 13:18:47;;;;;;;12.02;7.75;;;5.50;85.30;;;;;;4989798;28;20053;-75
2021/12/09 13:21:52;;;;;;;8.20;6.40;;;5.50;85.30;;;;;;4991200;28;20046;-74
2021/12/09 13:24:19;;;;;;;11.43;7.07;;;5.50;85.30;;;;;;4987026;28;20030;-73
2021/12/09 13:27:11;;;;;;;10.25;6.72;;;5.60;85.30;;;;;;4990954;28;20034;-74
2021/12/09 13:29:52;;;;;;;10.38;7.68;;;5.60;85.30;;;;;;4984560;28;20130;-74
2021/12/09 13:32:56;;;;;;;16.50;10.05;;;5.70;85.30;;;;;;4989732;28;20049;-74
2021/12/09 13:35:52;;;;;;;7.95;5.13;;;5.60;85.10;;;;;;4985533;28;20422;-74